sensor_id;sensor_type;location;lat;lon;timestamp;pressure;altitude;pressure_sealevel;temperature;humidity
7888;BME280;3989;48.810;9.208;2023-04-26T00:40:59;98774.38;;;5.87;100.00
7888;BME280;3989;48.810;9.208;2023-04-26T00:43:25;98859.00;;;6.33;100.00
7888;BME280;3989;48.810;9.208;2023-04-26T00:45:52;98817.59;;;6.05;100.00
7888;BME280;3989;48.810;9.208;2023-04-26T00:48:19;98862.31;;;6.35;100.00
7888;BME280;3989;48.810;9.208;2023-04-26T00:50:46;98863.16;;;6.36;100.00
7888;BME280;3989;48.810;9.208;2023-04-26T00:53:13;98858.53;;;6.38;100.00
7888;BME280;3989;48.810;9.208;2023-04-26T00:55:40;98856.47;;;6.31;100.00
7888;BME280;3989;48.810;9.208;2023-04-26T00:58:09;98861.47;;;6.34;100.00
7888;BME280;3989;48.810;9.208;2023-04-26T01:00:36;98856.34;;;6.33;100.00
7888;BME280;3989;48.810;9.208;2023-04-26T01:03:03;98860.34;;;6.37;100.00
7888;BME280;3989;48.810;9.208;2023-04-26T01:05:30;98838.59;;;6.16;100.00
7888;BME280;3989;48.810;9.208;2023-04-26T01:07:56;98863.75;;;6.29;100.00
7888;BME280;3989;48.810;9.208;2023-04-26T01:10:24;98870.16;;;6.27;100.00
7888;BME280;3989;48.810;9.208;2023-04-26T01:12:51;98875.09;;;6.22;100.00
7888;BME280;3989;48.810;9.208;2023-04-26T01:15:19;98863.13;;;6.18;100.00
7888;BME280;3989;48.810;9.208;2023-04-26T01:17:45;98872.38;;;6.14;100.00
7888;BME280;3989;48.810;9.208;2023-04-26T01:20:13;98812.63;;;5.74;100.00
7888;BME280;3989;48.810;9.208;2023-04-26T01:22:41;98780.28;;;5.44;100.00
7888;BME280;3989;48.810;9.208;2023-04-26T01:25:10;98667.41;;;4.70;100.00
7888;BME280;3989;48.810;9.208;2023-04-26T01:27:37;98823.25;;;5.65;100.00
7888;BME280;3989;48.810;9.208;2023-04-26T01:30:05;98842.56;;;5.75;100.00
7888;BME280;3989;48.810;9.208;2023-04-26T01:32:32;98804.06;;;5.53;100.00
7888;BME280;3989;48.810;9.208;2023-04-26T01:34:59;98787.38;;;5.43;100.00
7888;BME280;3989;48.810;9.208;2023-04-26T01:37:25;98837.13;;;5.76;100.00
7888;BME280;3989;48.810;9.208;2023-04-26T01:39:53;98847.63;;;5.68;100.00
7888;BME280;3989;48.810;9.208;2023-04-26T01:42:20;98858.50;;;5.65;100.00
7888;BME280;3989;48.810;9.208;2023-04-26T01:44:46;98861.31;;;5.54;100.00
7888;BME280;3989;48.810;9.208;2023-04-26T01:47:13;98721.53;;;4.66;100.00
7888;BME280;3989;48.810;9.208;2023-04-26T01:49:40;98858.97;;;5.51;100.00
7888;BME280;3989;48.810;9.208;2023-04-26T01:52:06;98664.16;;;4.30;100.00
7888;BME280;3989;48.810;9.208;2023-04-26T01:54:33;98837.41;;;5.37;100.00
7888;BME280;3989;48.810;9.208;2023-04-26T01:57:01;98868.97;;;5.57;100.00
7888;BME280;3989;48.810;9.208;2023-04-26T01:59:28;98878.44;;;5.60;100.00
7888;BME280;3989;48.810;9.208;2023-04-26T02:01:54;98703.31;;;4.63;100.00
7888;BME280;3989;48.810;9.208;2023-04-26T02:04:21;98873.13;;;5.60;100.00
7888;BME280;3989;48.810;9.208;2023-04-26T02:06:48;98717.38;;;4.64;100.00
7888;BME280;3989;48.810;9.208;2023-04-26T02:09:15;98846.75;;;5.41;100.00
7888;BME280;3989;48.810;9.208;2023-04-26T02:11:42;98874.41;;;5.56;100.00
7888;BME280;3989;48.810;9.208;2023-04-26T02:14:10;98832.13;;;5.37;100.00
7888;BME280;3989;48.810;9.208;2023-04-26T02:16:38;98828.09;;;5.42;100.00
7888;BME280;3989;48.810;9.208;2023-04-26T02:19:05;98864.81;;;5.55;100.00
7888;BME280;3989;48.810;9.208;2023-04-26T02:21:49;98863.69;;;5.57;100.00
7888;BME280;3989;48.810;9.208;2023-04-26T02:24:16;98862.28;;;5.53;100.00
7888;BME280;3989;48.810;9.208;2023-04-26T02:26:42;98789.22;;;5.06;100.00
7888;BME280;3989;48.810;9.208;2023-04-26T02:29:10;98770.78;;;4.77;100.00
7888;BME280;3989;48.810;9.208;2023-04-26T02:31:37;98836.09;;;5.23;100.00
7888;BME280;3989;48.810;9.208;2023-04-26T02:34:03;98857.47;;;5.39;100.00
7888;BME280;3989;48.810;9.208;2023-04-26T02:36:30;98727.69;;;4.48;100.00
7888;BME280;3989;48.810;9.208;2023-04-26T02:38:57;98874.06;;;5.32;100.00
7888;BME280;3989;48.810;9.208;2023-04-26T02:41:24;98876.84;;;5.30;100.00
7888;BME280;3989;48.810;9.208;2023-04-26T02:43:50;98832.38;;;5.06;100.00
7888;BME280;3989;48.810;9.208;2023-04-26T02:46:18;98740.94;;;4.38;100.00
7888;BME280;3989;48.810;9.208;2023-04-26T02:48:45;98827.97;;;4.88;100.00
7888;BME280;3989;48.810;9.208;2023-04-26T02:51:11;98869.66;;;5.22;100.00
7888;BME280;3989;48.810;9.208;2023-04-26T02:53:38;98863.38;;;5.14;100.00
7888;BME280;3989;48.810;9.208;2023-04-26T02:56:05;98801.25;;;4.71;100.00
7888;BME280;3989;48.810;9.208;2023-04-26T02:58:31;98741.06;;;4.37;100.00
7888;BME280;3989;48.810;9.208;2023-04-26T03:00:58;98820.44;;;4.83;100.00
7888;BME280;3989;48.810;9.208;2023-04-26T03:03:26;98822.13;;;4.74;100.00
7888;BME280;3989;48.810;9.208;2023-04-26T03:05:53;98852.16;;;4.83;100.00
7888;BME280;3989;48.810;9.208;2023-04-26T03:08:19;98852.72;;;4.77;100.00
7888;BME280;3989;48.810;9.208;2023-04-26T03:10:46;98860.22;;;4.91;100.00
7888;BME280;3989;48.810;9.208;2023-04-26T03:13:12;98873.03;;;4.96;100.00
7888;BME280;3989;48.810;9.208;2023-04-26T03:15:43;98846.88;;;4.73;100.00
7888;BME280;3989;48.810;9.208;2023-04-26T03:18:09;98870.13;;;4.80;100.00
7888;BME280;3989;48.810;9.208;2023-04-26T03:20:37;98879.28;;;4.85;100.00
7888;BME280;3989;48.810;9.208;2023-04-26T03:23:05;98855.66;;;4.74;100.00
7888;BME280;3989;48.810;9.208;2023-04-26T03:25:32;98866.78;;;4.78;100.00
7888;BME280;3989;48.810;9.208;2023-04-26T03:27:58;98796.97;;;4.13;100.00
7888;BME280;3989;48.810;9.208;2023-04-26T03:30:25;98752.63;;;3.88;100.00
7888;BME280;3989;48.810;9.208;2023-04-26T03:32:52;98830.75;;;4.48;100.00
7888;BME280;3989;48.810;9.208;2023-04-26T03:35:18;98811.56;;;4.27;100.00
7888;BME280;3989;48.810;9.208;2023-04-26T03:37:46;98757.47;;;3.92;100.00
7888;BME280;3989;48.810;9.208;2023-04-26T03:40:13;98827.44;;;4.46;100.00
7888;BME280;3989;48.810;9.208;2023-04-26T03:42:41;98852.31;;;4.53;100.00
7888;BME280;3989;48.810;9.208;2023-04-26T03:45:08;98866.25;;;4.55;100.00
7888;BME280;3989;48.810;9.208;2023-04-26T03:47:35;98872.47;;;4.44;100.00
7888;BME280;3989;48.810;9.208;2023-04-26T03:50:02;98832.38;;;4.01;100.00
7888;BME280;3989;48.810;9.208;2023-04-26T03:52:29;98870.19;;;4.11;100.00
7888;BME280;3989;48.810;9.208;2023-04-26T03:54:58;98872.41;;;3.96;100.00
7888;BME280;3989;48.810;9.208;2023-04-26T03:57:24;98795.81;;;3.37;100.00
7888;BME280;3989;48.810;9.208;2023-04-26T03:59:51;98737.75;;;2.97;100.00
7888;BME280;3989;48.810;9.208;2023-04-26T04:02:18;98839.28;;;3.43;100.00
7888;BME280;3989;48.810;9.208;2023-04-26T04:04:44;98790.41;;;3.08;100.00
7888;BME280;3989;48.810;9.208;2023-04-26T04:07:11;98887.16;;;3.68;100.00
7888;BME280;3989;48.810;9.208;2023-04-26T04:09:38;98762.47;;;2.96;100.00
7888;BME280;3989;48.810;9.208;2023-04-26T04:12:06;98750.19;;;2.86;100.00
7888;BME280;3989;48.810;9.208;2023-04-26T04:14:32;98877.72;;;3.66;100.00
7888;BME280;3989;48.810;9.208;2023-04-26T04:16:59;98843.81;;;3.31;100.00
7888;BME280;3989;48.810;9.208;2023-04-26T04:19:26;98732.22;;;2.70;100.00
7888;BME280;3989;48.810;9.208;2023-04-26T04:21:52;98632.34;;;2.06;100.00
7888;BME280;3989;48.810;9.208;2023-04-26T04:24:19;98750.72;;;2.80;100.00
7888;BME280;3989;48.810;9.208;2023-04-26T04:26:46;98814.34;;;3.16;100.00
7888;BME280;3989;48.810;9.208;2023-04-26T04:29:14;98871.28;;;3.59;100.00
7888;BME280;3989;48.810;9.208;2023-04-26T04:31:40;98757.00;;;2.88;100.00
7888;BME280;3989;48.810;9.208;2023-04-26T04:34:07;98825.75;;;3.27;100.00
7888;BME280;3989;48.810;9.208;2023-04-26T04:36:34;98886.09;;;3.71;100.00
7888;BME280;3989;48.810;9.208;2023-04-26T04:39:03;98835.38;;;3.37;100.00
7888;BME280;3989;48.810;9.208;2023-04-26T04:41:30;98865.06;;;3.60;100.00
7888;BME280;3989;48.810;9.208;2023-04-26T04:43:59;98722.13;;;2.75;100.00
7888;BME280;3989;48.810;9.208;2023-04-26T04:46:28;98892.78;;;3.85;100.00
7888;BME280;3989;48.810;9.208;2023-04-26T04:48:55;98887.94;;;3.90;100.00
7888;BME280;3989;48.810;9.208;2023-04-26T04:51:22;98659.38;;;2.59;100.00
7888;BME280;3989;48.810;9.208;2023-04-26T04:53:48;98592.78;;;2.18;100.00
7888;BME280;3989;48.810;9.208;2023-04-26T04:56:15;98883.84;;;4.06;100.00
7888;BME280;3989;48.810;9.208;2023-04-26T04:58:42;98752.16;;;3.24;100.00
7888;BME280;3989;48.810;9.208;2023-04-26T05:01:09;98814.69;;;3.82;100.00
7888;BME280;3989;48.810;9.208;2023-04-26T05:03:37;98904.19;;;4.44;100.00
7888;BME280;3989;48.810;9.208;2023-04-26T05:06:04;98808.19;;;3.96;100.00
7888;BME280;3989;48.810;9.208;2023-04-26T05:08:32;98889.03;;;4.56;100.00
7888;BME280;3989;48.810;9.208;2023-04-26T05:10:58;98846.47;;;4.49;100.00
7888;BME280;3989;48.810;9.208;2023-04-26T05:13:25;98871.50;;;4.84;100.00
7888;BME280;3989;48.810;9.208;2023-04-26T05:15:51;98861.63;;;4.86;100.00
7888;BME280;3989;48.810;9.208;2023-04-26T05:18:18;98903.19;;;5.22;100.00
7888;BME280;3989;48.810;9.208;2023-04-26T05:20:46;98679.38;;;3.99;100.00
7888;BME280;3989;48.810;9.208;2023-04-26T05:23:13;98882.72;;;5.24;100.00
7888;BME280;3989;48.810;9.208;2023-04-26T05:25:39;98914.28;;;5.54;100.00
7888;BME280;3989;48.810;9.208;2023-04-26T05:28:06;98818.91;;;4.90;100.00
7888;BME280;3989;48.810;9.208;2023-04-26T05:30:36;98810.16;;;4.80;100.00
7888;BME280;3989;48.810;9.208;2023-04-26T05:33:05;98639.38;;;4.04;100.00
7888;BME280;3989;48.810;9.208;2023-04-26T05:35:32;98844.84;;;5.33;100.00
7888;BME280;3989;48.810;9.208;2023-04-26T05:38:04;98746.97;;;4.77;100.00
7888;BME280;3989;48.810;9.208;2023-04-26T05:40:31;98936.47;;;5.90;100.00
7888;BME280;3989;48.810;9.208;2023-04-26T05:43:06;98933.25;;;5.96;100.00
7888;BME280;3989;48.810;9.208;2023-04-26T05:45:33;98704.84;;;4.66;100.00
7888;BME280;3989;48.810;9.208;2023-04-26T05:48:00;98825.53;;;5.50;100.00
7888;BME280;3989;48.810;9.208;2023-04-26T05:50:27;98819.06;;;5.35;100.00
7888;BME280;3989;48.810;9.208;2023-04-26T05:52:53;98949.84;;;6.25;100.00
7888;BME280;3989;48.810;9.208;2023-04-26T05:55:22;98907.72;;;5.95;100.00
7888;BME280;3989;48.810;9.208;2023-04-26T05:57:49;98770.19;;;5.29;100.00
7888;BME280;3989;48.810;9.208;2023-04-26T06:00:16;98929.72;;;6.32;100.00
7888;BME280;3989;48.810;9.208;2023-04-26T06:02:45;98927.19;;;6.31;100.00
7888;BME280;3989;48.810;9.208;2023-04-26T06:05:13;98938.88;;;6.38;100.00
7888;BME280;3989;48.810;9.208;2023-04-26T06:07:40;98917.75;;;6.28;100.00
7888;BME280;3989;48.810;9.208;2023-04-26T06:10:07;98896.84;;;6.25;100.00
7888;BME280;3989;48.810;9.208;2023-04-26T06:12:35;98885.47;;;6.15;100.00
7888;BME280;3989;48.810;9.208;2023-04-26T06:15:01;98934.78;;;6.71;100.00
7888;BME280;3989;48.810;9.208;2023-04-26T06:17:28;98961.16;;;6.90;100.00
7888;BME280;3989;48.810;9.208;2023-04-26T06:19:54;98954.03;;;6.91;100.00
7888;BME280;3989;48.810;9.208;2023-04-26T06:22:21;98904.72;;;6.53;100.00
7888;BME280;3989;48.810;9.208;2023-04-26T06:24:48;98951.59;;;6.79;100.00
7888;BME280;3989;48.810;9.208;2023-04-26T06:27:14;98934.09;;;6.86;100.00
7888;BME280;3989;48.810;9.208;2023-04-26T06:29:43;98891.72;;;6.77;100.00
7888;BME280;3989;48.810;9.208;2023-04-26T06:32:10;98920.22;;;6.93;100.00
7888;BME280;3989;48.810;9.208;2023-04-26T06:34:37;98868.00;;;6.75;100.00
7888;BME280;3989;48.810;9.208;2023-04-26T06:37:04;98727.53;;;5.87;100.00
7888;BME280;3989;48.810;9.208;2023-04-26T06:47:15;98912.94;;;7.38;100.00
7888;BME280;3989;48.810;9.208;2023-04-26T07:49:12;98937.38;;;10.37;85.62
7888;BME280;3989;48.810;9.208;2023-04-26T07:51:56;98782.22;;;9.56;74.21
7888;BME280;3989;48.810;9.208;2023-04-26T07:54:26;98789.84;;;9.59;72.63
7888;BME280;3989;48.810;9.208;2023-04-26T07:56:54;98836.81;;;9.98;75.96
7888;BME280;3989;48.810;9.208;2023-04-26T07:59:22;98844.00;;;9.98;74.75
7888;BME280;3989;48.810;9.208;2023-04-26T08:01:55;98794.34;;;9.50;72.09
7888;BME280;3989;48.810;9.208;2023-04-26T08:04:33;98825.03;;;9.46;76.91
7888;BME280;3989;48.810;9.208;2023-04-26T08:07:06;98848.31;;;9.52;74.95
7888;BME280;3989;48.810;9.208;2023-04-26T08:09:37;98811.22;;;9.34;76.71
7888;BME280;3989;48.810;9.208;2023-04-26T08:12:05;98939.84;;;10.38;76.51
7888;BME280;3989;48.810;9.208;2023-04-26T08:14:33;98936.59;;;10.59;72.38
7888;BME280;3989;48.810;9.208;2023-04-26T08:17:01;98797.00;;;9.97;64.58
7888;BME280;3989;48.810;9.208;2023-04-26T08:22:32;98893.13;;;10.96;62.09
7888;BME280;3989;48.810;9.208;2023-04-26T08:25:00;98797.34;;;10.56;58.50
7888;BME280;3989;48.810;9.208;2023-04-26T08:27:29;98889.03;;;11.60;58.35
7888;BME280;3989;48.810;9.208;2023-04-26T08:29:59;98850.53;;;12.13;57.39
7888;BME280;3989;48.810;9.208;2023-04-26T08:32:26;98787.69;;;12.24;53.10
7888;BME280;3989;48.810;9.208;2023-04-26T08:34:53;98932.63;;;13.56;53.32
7888;BME280;3989;48.810;9.208;2023-04-26T08:37:21;98772.06;;;12.91;51.67
7888;BME280;3989;48.810;9.208;2023-04-26T08:39:53;98903.91;;;14.18;49.83
7888;BME280;3989;48.810;9.208;2023-04-26T08:42:21;98791.75;;;14.01;47.90
7888;BME280;3989;48.810;9.208;2023-04-26T08:44:55;98796.22;;;14.35;47.95
7888;BME280;3989;48.810;9.208;2023-04-26T08:47:28;98917.09;;;15.08;46.95
7888;BME280;3989;48.810;9.208;2023-04-26T08:49:57;98949.38;;;15.21;46.28
7888;BME280;3989;48.810;9.208;2023-04-26T08:52:27;98942.72;;;15.04;47.00
7888;BME280;3989;48.810;9.208;2023-04-26T08:54:57;98946.91;;;14.59;46.63
7888;BME280;3989;48.810;9.208;2023-04-26T08:57:24;98952.78;;;14.07;47.94
7888;BME280;3989;48.810;9.208;2023-04-26T08:59:51;98946.84;;;13.56;47.88
7888;BME280;3989;48.810;9.208;2023-04-26T09:02:20;98954.06;;;13.35;49.13
7888;BME280;3989;48.810;9.208;2023-04-26T09:04:47;98936.97;;;13.36;48.27
7888;BME280;3989;48.810;9.208;2023-04-26T09:07:19;98926.69;;;13.39;47.45
7888;BME280;3989;48.810;9.208;2023-04-26T09:09:47;98936.56;;;13.60;48.27
7888;BME280;3989;48.810;9.208;2023-04-26T09:12:17;98923.34;;;13.58;48.04
7888;BME280;3989;48.810;9.208;2023-04-26T09:14:43;98876.75;;;13.10;47.53
7888;BME280;3989;48.810;9.208;2023-04-26T09:17:29;98942.28;;;13.50;48.33
7888;BME280;3989;48.810;9.208;2023-04-26T09:19:56;98944.13;;;13.78;48.19
7888;BME280;3989;48.810;9.208;2023-04-26T09:22:27;98932.69;;;13.97;48.19
7888;BME280;3989;48.810;9.208;2023-04-26T09:24:54;98907.72;;;13.96;47.90
7888;BME280;3989;48.810;9.208;2023-04-26T09:27:31;98937.22;;;13.96;46.43
7888;BME280;3989;48.810;9.208;2023-04-26T09:29:59;98935.03;;;14.06;46.57
7888;BME280;3989;48.810;9.208;2023-04-26T09:32:42;98926.34;;;14.04;45.68
7888;BME280;3989;48.810;9.208;2023-04-26T09:35:17;98928.13;;;13.91;45.49
7888;BME280;3989;48.810;9.208;2023-04-26T09:37:51;98928.81;;;14.06;46.93
7888;BME280;3989;48.810;9.208;2023-04-26T09:40:18;98930.97;;;13.83;46.83
7888;BME280;3989;48.810;9.208;2023-04-26T09:42:55;98909.06;;;13.79;47.61
7888;BME280;3989;48.810;9.208;2023-04-26T09:45:23;98928.69;;;13.86;46.84
7888;BME280;3989;48.810;9.208;2023-04-26T09:47:49;98905.94;;;13.76;46.76
7888;BME280;3989;48.810;9.208;2023-04-26T09:50:24;98916.66;;;13.48;46.16
7888;BME280;3989;48.810;9.208;2023-04-26T09:52:51;98917.53;;;12.91;47.21
7888;BME280;3989;48.810;9.208;2023-04-26T09:55:25;98909.81;;;12.46;47.71
7888;BME280;3989;48.810;9.208;2023-04-26T09:57:53;98935.53;;;12.76;48.21
7888;BME280;3989;48.810;9.208;2023-04-26T10:00:20;98919.22;;;12.92;47.63
7888;BME280;3989;48.810;9.208;2023-04-26T10:02:48;98893.19;;;13.07;47.33
7888;BME280;3989;48.810;9.208;2023-04-26T10:05:15;98933.06;;;13.59;47.33
7888;BME280;3989;48.810;9.208;2023-04-26T10:07:41;98930.13;;;14.16;46.23
7888;BME280;3989;48.810;9.208;2023-04-26T10:10:09;98921.88;;;14.52;43.53
7888;BME280;3989;48.810;9.208;2023-04-26T10:12:37;98933.22;;;14.48;43.25
7888;BME280;3989;48.810;9.208;2023-04-26T10:15:09;98855.44;;;14.27;43.30
7888;BME280;3989;48.810;9.208;2023-04-26T10:17:36;98908.34;;;14.33;43.46
7888;BME280;3989;48.810;9.208;2023-04-26T10:20:06;98892.78;;;14.56;43.45
7888;BME280;3989;48.810;9.208;2023-04-26T10:22:45;98906.38;;;14.54;42.71
7888;BME280;3989;48.810;9.208;2023-04-26T10:25:15;98910.72;;;14.14;43.74
7888;BME280;3989;48.810;9.208;2023-04-26T10:27:51;98903.31;;;13.82;44.33
7888;BME280;3989;48.810;9.208;2023-04-26T10:30:22;98907.00;;;14.15;44.30
7888;BME280;3989;48.810;9.208;2023-04-26T10:33:12;98893.66;;;14.69;43.36
7888;BME280;3989;48.810;9.208;2023-04-26T10:36:03;98900.06;;;14.75;42.76
7888;BME280;3989;48.810;9.208;2023-04-26T10:38:30;98885.69;;;14.42;41.54
7888;BME280;3989;48.810;9.208;2023-04-26T10:41:35;98905.75;;;14.52;42.03
7888;BME280;3989;48.810;9.208;2023-04-26T10:44:39;98909.94;;;14.20;42.62
7888;BME280;3989;48.810;9.208;2023-04-26T10:47:20;98852.41;;;14.36;42.29
7888;BME280;3989;48.810;9.208;2023-04-26T10:49:47;98894.56;;;15.16;41.92
7888;BME280;3989;48.810;9.208;2023-04-26T10:52:14;98884.22;;;15.13;40.97
7888;BME280;3989;48.810;9.208;2023-04-26T10:54:49;98878.00;;;14.86;41.75
7888;BME280;3989;48.810;9.208;2023-04-26T10:57:16;98887.13;;;15.11;42.88
7888;BME280;3989;48.810;9.208;2023-04-26T11:00:17;98880.06;;;15.10;42.40
7888;BME280;3989;48.810;9.208;2023-04-26T11:03:02;98887.53;;;15.02;41.22
7888;BME280;3989;48.810;9.208;2023-04-26T11:05:36;98890.56;;;14.73;42.89
7888;BME280;3989;48.810;9.208;2023-04-26T11:08:04;98785.22;;;14.16;42.89
7888;BME280;3989;48.810;9.208;2023-04-26T11:10:32;98891.41;;;14.80;42.31
7888;BME280;3989;48.810;9.208;2023-04-26T11:12:59;98890.78;;;14.84;41.73
7888;BME280;3989;48.810;9.208;2023-04-26T11:15:26;98865.97;;;14.28;41.82
7888;BME280;3989;48.810;9.208;2023-04-26T11:17:54;98760.22;;;13.62;41.75
7888;BME280;3989;48.810;9.208;2023-04-26T11:20:22;98822.13;;;14.08;42.09
7888;BME280;3989;48.810;9.208;2023-04-26T11:22:53;98878.19;;;14.91;41.64
7888;BME280;3989;48.810;9.208;2023-04-26T11:25:20;98873.91;;;15.49;40.96
7888;BME280;3989;48.810;9.208;2023-04-26T11:27:46;98821.13;;;15.42;39.95
7888;BME280;3989;48.810;9.208;2023-04-26T11:30:13;98851.09;;;15.91;39.83
7888;BME280;3989;48.810;9.208;2023-04-26T11:32:44;98849.28;;;16.29;40.09
7888;BME280;3989;48.810;9.208;2023-04-26T11:35:11;98857.13;;;16.44;39.06
7888;BME280;3989;48.810;9.208;2023-04-26T11:37:39;98817.25;;;16.15;38.22
7888;BME280;3989;48.810;9.208;2023-04-26T11:40:09;98843.69;;;16.38;39.67
7888;BME280;3989;48.810;9.208;2023-04-26T11:42:36;98725.38;;;15.54;39.90
7888;BME280;3989;48.810;9.208;2023-04-26T11:45:04;98784.34;;;16.06;39.40
7888;BME280;3989;48.810;9.208;2023-04-26T11:47:33;98822.69;;;16.08;39.12
7888;BME280;3989;48.810;9.208;2023-04-26T11:50:00;98805.03;;;16.12;40.53
7888;BME280;3989;48.810;9.208;2023-04-26T11:52:28;98836.34;;;16.58;39.46
7888;BME280;3989;48.810;9.208;2023-04-26T11:55:03;98801.91;;;16.66;38.82
7888;BME280;3989;48.810;9.208;2023-04-26T11:57:30;98793.00;;;16.91;38.16
7888;BME280;3989;48.810;9.208;2023-04-26T12:00:11;98820.06;;;16.77;37.19
7888;BME280;3989;48.810;9.208;2023-04-26T12:02:39;98810.78;;;16.73;38.17
7888;BME280;3989;48.810;9.208;2023-04-26T12:05:09;98789.84;;;16.69;38.62
7888;BME280;3989;48.810;9.208;2023-04-26T12:07:36;98785.69;;;16.73;38.07
7888;BME280;3989;48.810;9.208;2023-04-26T12:10:15;98817.91;;;17.17;37.99
7888;BME280;3989;48.810;9.208;2023-04-26T12:12:43;98768.72;;;17.22;37.86
7888;BME280;3989;48.810;9.208;2023-04-26T12:15:11;98791.44;;;17.57;37.50
7888;BME280;3989;48.810;9.208;2023-04-26T12:17:38;98729.53;;;17.38;37.37
7888;BME280;3989;48.810;9.208;2023-04-26T12:20:08;98728.34;;;17.33;36.96
7888;BME280;3989;48.810;9.208;2023-04-26T12:22:35;98825.88;;;17.55;36.11
7888;BME280;3989;48.810;9.208;2023-04-26T12:25:06;98779.38;;;16.86;37.47
7888;BME280;3989;48.810;9.208;2023-04-26T12:27:35;98710.44;;;16.40;37.52
7888;BME280;3989;48.810;9.208;2023-04-26T12:30:05;98790.44;;;16.71;37.14
7888;BME280;3989;48.810;9.208;2023-04-26T12:32:31;98809.47;;;17.07;37.18
7888;BME280;3989;48.810;9.208;2023-04-26T12:34:58;98764.56;;;17.19;36.19
7888;BME280;3989;48.810;9.208;2023-04-26T12:37:25;98803.44;;;17.98;35.32
7888;BME280;3989;48.810;9.208;2023-04-26T12:39:51;98708.63;;;17.33;35.58
7888;BME280;3989;48.810;9.208;2023-04-26T12:42:18;98763.81;;;17.55;36.03
7888;BME280;3989;48.810;9.208;2023-04-26T12:44:46;98714.50;;;16.49;35.93
7888;BME280;3989;48.810;9.208;2023-04-26T12:47:13;98788.41;;;16.98;36.89
7888;BME280;3989;48.810;9.208;2023-04-26T12:49:39;98744.59;;;16.46;36.82
7888;BME280;3989;48.810;9.208;2023-04-26T12:52:06;98794.75;;;16.78;36.78
7888;BME280;3989;48.810;9.208;2023-04-26T12:54:33;98794.44;;;16.93;37.50
7888;BME280;3989;48.810;9.208;2023-04-26T12:56:59;98786.91;;;17.02;36.44
7888;BME280;3989;48.810;9.208;2023-04-26T12:59:26;98755.50;;;17.14;36.10
7888;BME280;3989;48.810;9.208;2023-04-26T13:01:54;98764.50;;;17.26;36.17
7888;BME280;3989;48.810;9.208;2023-04-26T13:04:21;98789.41;;;17.28;36.15
7888;BME280;3989;48.810;9.208;2023-04-26T13:06:48;98756.41;;;17.26;36.59
7888;BME280;3989;48.810;9.208;2023-04-26T13:09:14;98768.25;;;17.00;36.50
7888;BME280;3989;48.810;9.208;2023-04-26T13:11:41;98767.13;;;17.32;35.99
7888;BME280;3989;48.810;9.208;2023-04-26T13:14:08;98781.75;;;17.68;36.07
7888;BME280;3989;48.810;9.208;2023-04-26T13:16:35;98788.22;;;17.85;35.84
7888;BME280;3989;48.810;9.208;2023-04-26T13:19:07;98765.09;;;17.71;35.46
7888;BME280;3989;48.810;9.208;2023-04-26T13:21:34;98766.34;;;17.50;35.99
7888;BME280;3989;48.810;9.208;2023-04-26T13:24:01;98745.75;;;16.88;37.06
7888;BME280;3989;48.810;9.208;2023-04-26T13:26:27;98757.72;;;16.99;37.04
7888;BME280;3989;48.810;9.208;2023-04-26T13:28:54;98779.66;;;17.02;37.74
7888;BME280;3989;48.810;9.208;2023-04-26T13:31:21;98763.78;;;16.88;37.49
7888;BME280;3989;48.810;9.208;2023-04-26T13:33:48;98711.31;;;16.90;37.28
7888;BME280;3989;48.810;9.208;2023-04-26T13:36:16;98771.78;;;17.68;36.44
7888;BME280;3989;48.810;9.208;2023-04-26T13:38:43;98745.81;;;18.04;35.35
7888;BME280;3989;48.810;9.208;2023-04-26T13:41:10;98748.59;;;17.97;35.11
7888;BME280;3989;48.810;9.208;2023-04-26T13:43:37;98771.59;;;18.18;35.95
7888;BME280;3989;48.810;9.208;2023-04-26T13:46:03;98783.19;;;17.46;35.72
7888;BME280;3989;48.810;9.208;2023-04-26T13:48:30;98782.72;;;16.81;36.90
7888;BME280;3989;48.810;9.208;2023-04-26T13:50:57;98763.31;;;16.72;37.78
7888;BME280;3989;48.810;9.208;2023-04-26T13:53:54;98776.34;;;17.00;37.26
7888;BME280;3989;48.810;9.208;2023-04-26T13:56:20;98781.41;;;17.15;36.51
7888;BME280;3989;48.810;9.208;2023-04-26T13:58:47;98772.91;;;17.36;36.36
7888;BME280;3989;48.810;9.208;2023-04-26T14:01:14;98769.78;;;17.64;35.72
7888;BME280;3989;48.810;9.208;2023-04-26T14:03:41;98750.38;;;17.49;36.63
7888;BME280;3989;48.810;9.208;2023-04-26T14:06:07;98726.81;;;17.62;35.54
7888;BME280;3989;48.810;9.208;2023-04-26T14:08:34;98776.78;;;18.19;35.74
7888;BME280;3989;48.810;9.208;2023-04-26T14:11:02;98767.56;;;17.91;35.77
7888;BME280;3989;48.810;9.208;2023-04-26T14:13:29;98739.38;;;17.07;35.94
7888;BME280;3989;48.810;9.208;2023-04-26T14:15:56;98739.44;;;17.01;37.07
7888;BME280;3989;48.810;9.208;2023-04-26T14:18:22;98767.78;;;17.53;37.20
7888;BME280;3989;48.810;9.208;2023-04-26T14:20:49;98723.16;;;18.05;35.59
7888;BME280;3989;48.810;9.208;2023-04-26T14:23:15;98757.09;;;18.90;35.00
7888;BME280;3989;48.810;9.208;2023-04-26T14:25:42;98751.69;;;19.13;33.87
7888;BME280;3989;48.810;9.208;2023-04-26T14:28:10;98756.56;;;18.70;34.83
7888;BME280;3989;48.810;9.208;2023-04-26T14:30:40;98746.88;;;17.84;35.56
7888;BME280;3989;48.810;9.208;2023-04-26T14:33:07;98681.81;;;18.34;35.56
7888;BME280;3989;48.810;9.208;2023-04-26T14:35:33;98687.88;;;20.60;31.88
7888;BME280;3989;48.810;9.208;2023-04-26T14:38:00;98728.34;;;21.67;31.40
7888;BME280;3989;48.810;9.208;2023-04-26T14:40:26;98742.66;;;20.06;32.53
7888;BME280;3989;48.810;9.208;2023-04-26T14:42:53;98751.47;;;19.61;33.47
7888;BME280;3989;48.810;9.208;2023-04-26T14:45:22;98748.50;;;18.93;34.52
7888;BME280;3989;48.810;9.208;2023-04-26T14:47:48;98748.06;;;18.07;36.08
7888;BME280;3989;48.810;9.208;2023-04-26T14:50:15;98671.28;;;16.69;37.09
7888;BME280;3989;48.810;9.208;2023-04-26T14:52:44;98733.59;;;16.48;37.61
7888;BME280;3989;48.810;9.208;2023-04-26T14:55:15;98754.16;;;16.04;38.78
7888;BME280;3989;48.810;9.208;2023-04-26T14:57:42;98753.88;;;15.61;39.64
7888;BME280;3989;48.810;9.208;2023-04-26T15:00:09;98765.00;;;15.85;39.71
7888;BME280;3989;48.810;9.208;2023-04-26T15:02:41;98756.22;;;16.02;39.25
7888;BME280;3989;48.810;9.208;2023-04-26T15:05:08;98737.09;;;16.48;38.26
7888;BME280;3989;48.810;9.208;2023-04-26T15:07:34;98713.38;;;16.70;37.63
7888;BME280;3989;48.810;9.208;2023-04-26T15:10:01;98734.59;;;16.60;38.44
7888;BME280;3989;48.810;9.208;2023-04-26T15:12:29;98767.56;;;17.11;38.37
7888;BME280;3989;48.810;9.208;2023-04-26T15:14:56;98738.78;;;18.32;35.18
7888;BME280;3989;48.810;9.208;2023-04-26T15:17:22;98715.91;;;20.66;32.55
7888;BME280;3989;48.810;9.208;2023-04-26T15:19:50;98747.31;;;21.83;31.77